createdAt,value
2019-02-14T00:00:27.113Z,13.97
2019-02-14T00:02:55.826Z,13.13
2019-02-14T00:05:24.455Z,11.70
2019-02-14T00:07:53.161Z,14.87
2019-02-14T00:10:21.742Z,10.37
2019-02-14T00:12:50.320Z,12.13
2019-02-14T00:15:18.932Z,11.83
2019-02-14T00:17:47.633Z,11.13
2019-02-14T00:20:16.308Z,11.10
2019-02-14T00:22:45.078Z,13.00
2019-02-14T00:25:13.685Z,9.63
2019-02-14T00:27:42.944Z,12.23
2019-02-14T00:30:11.586Z,12.03
2019-02-14T00:32:40.234Z,11.13
2019-02-14T00:35:08.994Z,13.87
2019-02-14T00:37:37.558Z,11.60
2019-02-14T00:40:08.574Z,12.03
2019-02-14T00:42:37.276Z,14.57
2019-02-14T00:45:07.817Z,15.80
2019-02-14T00:47:36.382Z,13.47
2019-02-14T00:50:06.727Z,15.37
2019-02-14T00:52:35.417Z,11.30
2019-02-14T00:55:05.324Z,14.40
2019-02-14T00:57:33.994Z,13.83
2019-02-14T01:00:02.613Z,13.93
2019-02-14T01:02:31.225Z,12.37
2019-02-14T01:04:59.890Z,12.97
2019-02-14T01:07:28.583Z,14.00
2019-02-14T01:09:57.217Z,13.00
2019-02-14T01:12:25.846Z,15.03
2019-02-14T01:14:54.489Z,14.73
2019-02-14T01:17:23.167Z,14.17
2019-02-14T01:19:51.770Z,11.97
2019-02-14T01:22:20.424Z,16.40
2019-02-14T01:24:49.079Z,13.13
2019-02-14T01:27:17.664Z,14.53
2019-02-14T01:29:46.338Z,13.37
2019-02-14T01:32:14.944Z,19.20
2019-02-14T01:34:43.614Z,13.63
2019-02-14T01:37:12.190Z,15.40
2019-02-14T01:39:40.818Z,16.13
2019-02-14T01:42:09.442Z,13.70
2019-02-14T01:44:38.072Z,13.87
2019-02-14T01:47:07.997Z,15.50
2019-02-14T01:49:36.620Z,13.87
2019-02-14T01:52:05.196Z,14.53
2019-02-14T01:54:33.805Z,14.67
2019-02-14T01:57:02.448Z,16.70
2019-02-14T01:59:30.987Z,13.87
2019-02-14T02:01:59.629Z,14.73
2019-02-14T02:04:28.187Z,13.30
2019-02-14T02:06:56.756Z,15.13
2019-02-14T02:09:25.422Z,13.27
2019-02-14T02:11:53.993Z,15.27
2019-02-14T02:14:22.595Z,14.07
2019-02-14T02:16:51.230Z,13.30
2019-02-14T02:19:19.981Z,14.70
2019-02-14T02:21:48.761Z,12.97
2019-02-14T02:24:17.528Z,13.00
2019-02-14T02:26:46.238Z,13.53
2019-02-14T02:29:16.538Z,13.90
2019-02-14T02:31:45.183Z,14.20
2019-02-14T02:34:13.741Z,13.50
2019-02-14T02:36:42.274Z,13.00
2019-02-14T02:39:10.769Z,13.63
2019-02-14T02:41:39.313Z,12.17
2019-02-14T02:44:09.122Z,11.70
2019-02-14T02:46:39.518Z,11.50
2019-02-14T02:49:08.400Z,9.33
2019-02-14T02:51:37.287Z,8.77
2019-02-14T02:54:06.021Z,8.47
2019-02-14T02:56:34.813Z,11.77
2019-02-14T02:59:03.492Z,8.77
2019-02-14T03:01:32.228Z,7.97
2019-02-14T03:04:03.777Z,8.77
2019-02-14T03:06:32.323Z,9.30
2019-02-14T03:09:01.015Z,9.60
2019-02-14T03:11:29.493Z,8.17
2019-02-14T03:13:58.187Z,7.07
2019-02-14T03:16:26.837Z,6.80
2019-02-14T03:18:55.382Z,7.23
2019-02-14T03:21:23.973Z,6.37
2019-02-14T03:23:52.509Z,7.73
2019-02-14T03:26:21.129Z,6.97
2019-02-14T03:28:49.675Z,10.33
2019-02-14T03:31:18.492Z,8.40
2019-02-14T03:33:47.187Z,11.87
2019-02-14T03:36:19.111Z,8.83
2019-02-14T03:38:46.166Z,11.57
2019-02-14T03:41:14.813Z,8.63
2019-02-14T03:43:43.429Z,9.37
2019-02-14T03:46:12.259Z,11.03
2019-02-14T03:48:40.821Z,10.87
2019-02-14T03:51:09.500Z,8.87
2019-02-14T03:53:38.156Z,9.83
2019-02-14T03:56:06.763Z,9.00
2019-02-14T03:58:35.329Z,9.63
2019-02-14T04:01:04.021Z,11.00
2019-02-14T04:03:32.645Z,8.03
2019-02-14T04:06:01.099Z,10.03
2019-02-14T04:08:29.738Z,9.30
2019-02-14T04:10:58.352Z,8.10
2019-02-14T04:13:26.907Z,8.53
2019-02-14T04:15:55.490Z,8.17
2019-02-14T04:18:24.065Z,9.13
2019-02-14T04:20:55.477Z,8.80
2019-02-14T04:23:24.155Z,10.23
2019-02-14T04:25:52.638Z,17.23
2019-02-14T04:28:21.218Z,14.67
2019-02-14T04:30:49.850Z,11.47
2019-02-14T04:33:18.442Z,12.20
2019-02-14T04:35:47.076Z,10.13
2019-02-14T04:38:15.710Z,9.63
2019-02-14T04:40:44.386Z,9.87
2019-02-14T04:43:13.054Z,13.40
2019-02-14T04:45:41.619Z,8.83
2019-02-14T04:48:10.212Z,10.50
2019-02-14T04:50:38.840Z,9.10
2019-02-14T04:53:26.774Z,9.93
2019-02-14T04:55:55.424Z,10.90
2019-02-14T04:58:23.885Z,9.50
2019-02-14T05:00:59.928Z,9.57
2019-02-14T05:03:28.481Z,10.30
2019-02-14T05:05:57.046Z,12.03
2019-02-14T05:08:25.574Z,11.27
2019-02-14T05:10:54.225Z,11.03
2019-02-14T05:13:22.762Z,11.43
2019-02-14T05:15:51.397Z,8.27
2019-02-14T05:18:19.891Z,10.70
2019-02-14T05:20:48.437Z,11.80
2019-02-14T05:23:17.157Z,13.77
2019-02-14T05:25:45.725Z,8.93
2019-02-14T05:28:14.414Z,8.73
2019-02-14T05:30:42.956Z,10.27
2019-02-14T05:33:11.537Z,10.90
2019-02-14T05:35:40.014Z,8.40
2019-02-14T05:38:08.639Z,12.70
2019-02-14T05:40:37.185Z,9.70
2019-02-14T05:43:05.927Z,13.50
2019-02-14T05:45:34.527Z,13.03
2019-02-14T05:48:03.178Z,12.83
2019-02-14T05:50:31.807Z,10.17
2019-02-14T05:53:00.384Z,11.43
2019-02-14T05:55:29.016Z,10.60
2019-02-14T05:57:57.654Z,14.80
2019-02-14T06:00:26.317Z,10.87
2019-02-14T06:02:54.931Z,9.13
2019-02-14T06:05:23.682Z,10.63
2019-02-14T06:07:52.290Z,11.07
2019-02-14T06:10:20.890Z,10.83
2019-02-14T06:12:49.430Z,9.43
2019-02-14T06:15:17.993Z,12.30
2019-02-14T06:17:46.564Z,13.47
2019-02-14T06:20:15.256Z,11.57
2019-02-14T06:22:43.878Z,10.37
2019-02-14T06:25:13.666Z,10.53
2019-02-14T06:27:42.272Z,11.43
2019-02-14T06:30:13.487Z,10.83
2019-02-14T06:32:42.100Z,9.90
2019-02-14T06:35:12.535Z,12.10
2019-02-14T06:37:41.209Z,11.00
2019-02-14T06:40:13.859Z,13.30
2019-02-14T06:42:42.489Z,13.63
2019-02-14T06:45:18.363Z,10.23
2019-02-14T06:48:10.085Z,12.73
2019-02-14T06:50:39.088Z,12.50
2019-02-14T06:53:07.721Z,11.77
2019-02-14T06:55:36.322Z,10.67
2019-02-14T06:58:04.999Z,13.27
2019-02-14T07:00:33.569Z,10.70
2019-02-14T07:03:02.091Z,10.80
2019-02-14T07:05:30.695Z,12.20
2019-02-14T07:07:59.864Z,11.17
2019-02-14T07:10:28.446Z,9.10
2019-02-14T07:12:57.147Z,12.70
2019-02-14T07:15:25.749Z,12.73
2019-02-14T07:17:54.758Z,11.97
2019-02-14T07:20:23.491Z,12.23
2019-02-14T07:22:52.084Z,10.67
2019-02-14T07:25:20.705Z,13.63
2019-02-14T07:27:49.503Z,12.17
2019-02-14T07:30:23.876Z,8.37
2019-02-14T07:32:54.158Z,9.43
2019-02-14T07:35:23.164Z,9.10
2019-02-14T07:37:51.754Z,10.37
2019-02-14T07:40:20.502Z,9.60
2019-02-14T07:42:49.097Z,8.53
2019-02-14T07:45:18.642Z,8.90
2019-02-14T07:47:47.312Z,10.93
2019-02-14T07:50:18.836Z,11.23
2019-02-14T07:52:51.261Z,12.87
2019-02-14T07:55:19.976Z,16.33
2019-02-14T07:57:48.593Z,13.80
2019-02-14T08:00:21.134Z,11.23
2019-02-14T08:02:49.941Z,9.53
2019-02-14T08:05:18.747Z,13.10
2019-02-14T08:07:47.440Z,13.00
2019-02-14T08:10:17.237Z,13.97
2019-02-14T08:12:46.166Z,15.83
2019-02-14T08:15:15.103Z,13.87
2019-02-14T08:17:43.790Z,12.20
2019-02-14T08:20:15.258Z,14.80
2019-02-14T08:22:43.963Z,8.73
2019-02-14T08:25:13.751Z,13.17
2019-02-14T08:27:42.399Z,10.73
2019-02-14T08:30:14.055Z,13.70
2019-02-14T08:32:42.645Z,9.10
2019-02-14T08:35:11.244Z,13.43
2019-02-14T08:37:45.387Z,11.57
2019-02-14T08:40:16.131Z,10.57
2019-02-14T08:42:44.759Z,8.37
2019-02-14T08:45:13.556Z,13.73
2019-02-14T08:47:42.204Z,13.70
2019-02-14T08:50:11.315Z,8.13
2019-02-14T08:52:40.154Z,8.90
2019-02-14T08:55:10.150Z,15.40
2019-02-14T08:57:38.902Z,11.70
2019-02-14T09:00:15.714Z,12.47
2019-02-14T09:02:44.346Z,16.93
2019-02-14T09:05:13.014Z,13.70
2019-02-14T09:07:41.494Z,11.80
2019-02-14T09:10:14.410Z,7.07
2019-02-14T09:12:43.083Z,8.83
2019-02-14T09:15:14.719Z,12.50
2019-02-14T09:17:43.432Z,12.10
2019-02-14T09:20:16.606Z,7.83
2019-02-14T09:22:45.272Z,6.53
2019-02-14T09:25:13.965Z,9.90
2019-02-14T09:27:42.655Z,7.50
2019-02-14T09:30:17.079Z,25.57
2019-02-14T09:32:45.849Z,11.70
2019-02-14T09:35:14.498Z,6.90
2019-02-14T09:37:43.114Z,9.27
2019-02-14T09:40:13.751Z,8.47
2019-02-14T09:42:42.370Z,11.50
2019-02-14T09:45:13.836Z,9.07
2019-02-14T09:47:42.470Z,8.23
2019-02-14T09:50:12.685Z,8.90
2019-02-14T09:52:41.901Z,9.60
2019-02-14T09:55:12.018Z,10.27
2019-02-14T09:57:40.718Z,10.60
2019-02-14T10:00:14.899Z,8.90
2019-02-14T10:02:43.571Z,7.50
2019-02-14T10:05:13.730Z,6.07
2019-02-14T10:07:42.408Z,8.20
2019-02-14T10:10:13.669Z,7.27
2019-02-14T10:12:42.375Z,6.13
2019-02-14T10:15:11.384Z,11.23
2019-02-14T10:17:39.965Z,11.27
2019-02-14T10:20:16.494Z,11.60
2019-02-14T10:22:45.198Z,6.23
2019-02-14T10:25:14.145Z,8.03
2019-02-14T10:27:42.923Z,10.80
2019-02-14T10:30:19.573Z,11.00
2019-02-14T10:32:48.255Z,7.13
2019-02-14T10:35:17.302Z,8.10
2019-02-14T10:37:45.878Z,14.57
2019-02-14T10:40:15.886Z,12.40
2019-02-14T10:42:44.523Z,8.70
2019-02-14T10:45:15.829Z,13.33
2019-02-14T10:47:44.385Z,6.10
2019-02-14T10:50:13.206Z,9.90
2019-02-14T10:52:41.898Z,8.10
2019-02-14T10:55:12.367Z,8.37
2019-02-14T10:57:41.063Z,11.57
2019-02-14T11:00:16.198Z,13.17
2019-02-14T11:02:44.494Z,9.83
2019-02-14T11:05:14.713Z,11.37
2019-02-14T11:07:43.376Z,16.00
2019-02-14T11:10:13.602Z,13.40
2019-02-14T11:12:42.153Z,11.33
2019-02-14T11:15:12.879Z,9.27
2019-02-14T11:17:41.576Z,11.40
2019-02-14T11:20:12.074Z,8.30
2019-02-14T11:22:40.682Z,5.97
2019-02-14T11:25:18.241Z,11.10
2019-02-14T11:27:46.834Z,6.83
2019-02-14T11:30:15.506Z,5.23
2019-02-14T11:32:44.083Z,8.43
2019-02-14T11:35:12.901Z,16.73
2019-02-14T11:37:41.477Z,15.13
2019-02-14T11:40:14.710Z,11.90
2019-02-14T11:42:43.484Z,8.05
2019-02-14T11:45:14.834Z,8.08
2019-02-14T11:47:43.558Z,6.75
2019-02-14T11:50:12.617Z,6.78
2019-02-14T11:52:41.332Z,10.05
2019-02-14T11:55:11.031Z,8.78
2019-02-14T11:57:40.029Z,7.22
2019-02-14T12:00:15.607Z,11.00
2019-02-14T12:02:44.450Z,15.90
2019-02-14T12:05:13.097Z,9.58
2019-02-14T12:07:41.766Z,15.70
2019-02-14T12:10:13.590Z,9.85
2019-02-14T12:12:41.527Z,6.50
2019-02-14T12:15:11.878Z,10.48
2019-02-14T12:17:40.448Z,9.40
2019-02-14T12:20:12.572Z,7.40
2019-02-14T12:22:46.770Z,7.80
2019-02-14T12:25:23.404Z,13.30
2019-02-14T12:27:52.049Z,14.17
2019-02-14T12:30:20.812Z,11.47
2019-02-14T12:32:49.428Z,13.27
2019-02-14T12:35:18.058Z,5.87
2019-02-14T12:37:46.675Z,4.80
2019-02-14T12:40:15.381Z,6.17
2019-02-14T12:42:43.993Z,9.13
2019-02-14T12:45:21.673Z,4.10
2019-02-14T12:47:45.797Z,8.80
2019-02-14T12:50:14.434Z,5.97
2019-02-14T12:52:43.055Z,4.00
2019-02-14T12:55:11.741Z,5.77
2019-02-14T12:57:40.351Z,6.83
2019-02-14T13:00:15.060Z,4.00
2019-02-14T13:02:43.705Z,3.10
2019-02-14T13:05:12.380Z,5.17
2019-02-14T13:07:41.017Z,6.90
2019-02-14T13:10:12.093Z,6.00
2019-02-14T13:12:40.791Z,8.77
2019-02-14T13:15:12.743Z,9.50
2019-02-14T13:17:41.442Z,7.67
2019-02-14T13:20:10.115Z,8.50
2019-02-14T13:22:38.908Z,8.43
2019-02-14T13:25:09.927Z,6.80
2019-02-14T13:27:38.402Z,7.33
2019-02-14T13:30:12.925Z,9.33
2019-02-14T13:32:41.714Z,6.07
2019-02-14T13:35:10.687Z,10.33
2019-02-14T13:37:40.130Z,7.47
2019-02-14T13:40:09.492Z,3.87
2019-02-14T13:42:38.099Z,4.97
2019-02-14T13:45:15.334Z,7.57
2019-02-14T13:47:43.886Z,8.57
2019-02-14T13:50:16.607Z,5.30
2019-02-14T13:52:45.334Z,7.27
2019-02-14T13:55:13.949Z,6.27
2019-02-14T13:57:42.534Z,5.73
2019-02-14T14:00:19.904Z,9.53
2019-02-14T14:02:48.601Z,8.67
2019-02-14T14:05:17.635Z,8.00
2019-02-14T14:07:46.316Z,6.33
2019-02-14T14:10:14.962Z,5.30
2019-02-14T14:12:43.661Z,8.27
2019-02-14T14:15:12.353Z,7.47
2019-02-14T14:17:40.894Z,7.17
2019-02-14T14:20:10.084Z,8.17
2019-02-14T14:22:38.727Z,5.27
2019-02-14T14:25:09.205Z,7.40
2019-02-14T14:27:37.925Z,8.20
2019-02-14T14:30:11.833Z,4.53
2019-02-14T14:32:40.405Z,7.33
2019-02-14T14:35:11.022Z,5.40
2019-02-14T14:37:40.130Z,8.13
2019-02-14T14:40:11.273Z,4.93
2019-02-14T14:42:53.763Z,7.70
2019-02-14T14:45:29.725Z,7.13
2019-02-14T14:47:58.820Z,6.17
2019-02-14T14:50:27.391Z,9.57
2019-02-14T14:52:56.279Z,4.53
2019-02-14T14:55:24.895Z,8.10
2019-02-14T14:57:53.446Z,5.37
2019-02-14T15:00:22.148Z,7.60
2019-02-14T15:02:50.781Z,10.80
2019-02-14T15:05:19.400Z,11.17
2019-02-14T15:07:47.970Z,14.13
2019-02-14T15:10:16.586Z,7.13
2019-02-14T15:12:45.133Z,10.77
2019-02-14T15:15:13.792Z,8.30
2019-02-14T15:17:42.328Z,10.37
2019-02-14T15:20:14.633Z,7.53
2019-02-14T15:22:43.230Z,7.57
2019-02-14T15:25:11.782Z,11.80
2019-02-14T15:27:40.339Z,9.30
2019-02-14T15:30:08.963Z,8.80
2019-02-14T15:32:37.565Z,6.33
2019-02-14T15:35:08.089Z,5.53
2019-02-14T15:37:36.642Z,7.07
2019-02-14T15:40:09.599Z,10.27
2019-02-14T15:42:37.693Z,7.20
2019-02-14T15:45:07.579Z,9.00
2019-02-14T15:47:36.220Z,11.50
2019-02-14T15:50:08.851Z,6.23
2019-02-14T15:52:37.825Z,11.53
2019-02-14T15:55:07.733Z,11.43
2019-02-14T15:57:36.345Z,11.47
2019-02-14T16:00:10.505Z,12.20
2019-02-14T16:02:37.987Z,9.60
2019-02-14T16:05:07.660Z,9.83
2019-02-14T16:07:37.016Z,10.83
2019-02-14T16:10:17.602Z,10.70
2019-02-14T16:12:41.081Z,9.07
2019-02-14T16:15:10.049Z,11.43
2019-02-14T16:17:38.670Z,11.63
2019-02-14T16:20:08.631Z,7.63
2019-02-14T16:22:40.228Z,6.27
2019-02-14T16:25:08.712Z,11.27
2019-02-14T16:27:37.285Z,13.80
2019-02-14T16:30:09.401Z,10.10
2019-02-14T16:32:38.190Z,9.43
2019-02-14T16:35:07.690Z,18.00
2019-02-14T16:37:36.229Z,14.90
2019-02-14T16:40:07.435Z,12.20
2019-02-14T16:42:36.200Z,11.43
2019-02-14T16:45:06.840Z,11.27
2019-02-14T16:47:36.295Z,10.93
2019-02-14T16:50:07.182Z,9.33
2019-02-14T16:52:35.708Z,11.40
2019-02-14T16:55:07.521Z,13.10
2019-02-14T16:57:36.194Z,10.03
2019-02-14T17:00:08.050Z,9.87
2019-02-14T17:02:36.734Z,12.97
2019-02-14T17:05:05.662Z,16.63
2019-02-14T17:07:34.373Z,13.07
2019-02-14T17:10:03.449Z,8.90
2019-02-14T17:12:32.015Z,17.70
2019-02-14T17:15:00.546Z,16.23
2019-02-14T17:17:29.181Z,19.50
2019-02-14T17:19:57.805Z,15.10
2019-02-14T17:22:26.449Z,11.87
2019-02-14T17:24:55.087Z,14.93
2019-02-14T17:27:23.758Z,11.67
2019-02-14T17:29:59.307Z,15.30
2019-02-14T17:32:27.873Z,16.67
2019-02-14T17:34:56.425Z,23.53
2019-02-14T17:37:25.050Z,18.63
2019-02-14T17:39:53.599Z,19.27
2019-02-14T17:42:22.197Z,15.13
2019-02-14T17:44:50.728Z,17.57
2019-02-14T17:47:19.358Z,12.17
2019-02-14T17:49:48.046Z,12.77
2019-02-14T17:52:16.541Z,18.30
2019-02-14T17:54:45.125Z,11.77
2019-02-14T17:57:13.838Z,12.73
2019-02-14T17:59:42.530Z,14.50
2019-02-14T18:02:11.271Z,15.47
2019-02-14T18:04:39.885Z,15.07
2019-02-14T18:07:08.433Z,19.07
2019-02-14T18:09:37.197Z,14.80
2019-02-14T18:12:05.881Z,19.30
2019-02-14T18:14:34.474Z,12.40
2019-02-14T18:17:03.182Z,21.77
2019-02-14T18:19:31.816Z,16.47
2019-02-14T18:22:00.546Z,14.57
2019-02-14T18:24:29.502Z,16.30
2019-02-14T18:26:58.565Z,13.60
2019-02-14T18:29:27.629Z,13.27
2019-02-14T18:32:01.408Z,17.37
2019-02-14T18:34:30.115Z,13.07
2019-02-14T18:36:58.755Z,16.60
2019-02-14T18:39:27.476Z,13.13
2019-02-14T18:41:56.178Z,14.77
2019-02-14T18:44:24.731Z,14.37
2019-02-14T18:46:53.300Z,29.03
2019-02-14T18:49:21.906Z,15.40
2019-02-14T18:51:50.673Z,16.67
2019-02-14T18:54:19.146Z,17.63
2019-02-14T18:56:47.913Z,18.77
2019-02-14T18:59:16.653Z,19.63
2019-02-14T19:01:50.269Z,20.60
2019-02-14T19:04:21.377Z,14.90
2019-02-14T19:06:50.050Z,17.83
2019-02-14T19:09:18.736Z,16.10
2019-02-14T19:11:47.429Z,17.40
2019-02-14T19:14:16.042Z,16.23
2019-02-14T19:16:48.270Z,15.67
2019-02-14T19:19:16.904Z,25.67
2019-02-14T19:21:45.538Z,19.20
2019-02-14T19:24:14.183Z,17.53
2019-02-14T19:26:42.925Z,15.70
2019-02-14T19:29:11.462Z,23.33
2019-02-14T19:31:40.053Z,13.40
2019-02-14T19:34:08.680Z,17.23
2019-02-14T19:36:37.322Z,17.00
2019-02-14T19:39:05.933Z,17.67
2019-02-14T19:41:34.518Z,23.23
2019-02-14T19:44:03.149Z,18.93
2019-02-14T19:46:31.875Z,21.50
2019-02-14T19:49:00.620Z,24.47
2019-02-14T19:51:29.170Z,28.67
2019-02-14T19:53:57.792Z,24.37
2019-02-14T19:56:26.333Z,21.73
2019-02-14T19:58:54.958Z,20.40
2019-02-14T20:01:23.540Z,20.40
2019-02-14T20:03:52.061Z,19.90
2019-02-14T20:06:20.746Z,22.60
2019-02-14T20:08:49.390Z,24.40
2019-02-14T20:11:18.257Z,30.60
2019-02-14T20:13:49.599Z,18.80
2019-02-14T20:16:17.083Z,25.90
2019-02-14T20:18:45.725Z,32.77
2019-02-14T20:21:14.341Z,31.50
2019-02-14T20:23:42.828Z,33.53
2019-02-14T20:26:11.442Z,26.93
2019-02-14T20:28:40.041Z,22.73
2019-02-14T20:31:08.669Z,27.93
2019-02-14T20:33:41.744Z,33.37
2019-02-14T20:36:10.711Z,30.03
2019-02-14T20:38:39.425Z,26.77
2019-02-14T20:41:08.054Z,28.80
2019-02-14T20:43:56.002Z,30.53
2019-02-14T20:46:24.660Z,28.93
2019-02-14T20:48:53.271Z,24.87
2019-02-14T20:51:22.058Z,27.03
2019-02-14T20:53:50.960Z,25.27
2019-02-14T20:56:19.680Z,27.30
2019-02-14T20:58:48.299Z,21.83
2019-02-14T21:01:17.020Z,19.60
2019-02-14T21:03:45.633Z,23.63
2019-02-14T21:06:14.382Z,19.53
2019-02-14T21:08:43.070Z,19.90
2019-02-14T21:11:11.741Z,23.27
2019-02-14T21:13:40.864Z,24.47
2019-02-14T21:16:09.554Z,23.10
2019-02-14T21:18:38.372Z,20.27
2019-02-14T21:21:07.153Z,20.13
2019-02-14T21:23:36.068Z,17.13
2019-02-14T21:26:04.781Z,23.17
2019-02-14T21:28:33.554Z,22.73
2019-02-14T21:31:02.246Z,22.33
2019-02-14T21:33:30.953Z,20.93
2019-02-14T21:36:00.854Z,26.90
2019-02-14T21:38:29.377Z,19.17
2019-02-14T21:40:57.950Z,16.57
2019-02-14T21:43:26.679Z,14.87
2019-02-14T21:45:55.363Z,14.73
2019-02-14T21:48:23.971Z,16.17
2019-02-14T21:50:52.692Z,13.83
2019-02-14T21:53:21.466Z,11.30
2019-02-14T21:55:50.138Z,12.97
2019-02-14T21:58:18.675Z,14.97
2019-02-14T22:00:47.253Z,21.07
2019-02-14T22:03:15.881Z,13.27
2019-02-14T22:05:44.579Z,12.60
2019-02-14T22:08:13.179Z,12.63
2019-02-14T22:10:41.773Z,12.63
2019-02-14T22:13:10.333Z,12.97
2019-02-14T22:15:39.005Z,11.23
2019-02-14T22:18:07.578Z,10.53
2019-02-14T22:20:36.233Z,11.73
2019-02-14T22:23:04.846Z,11.73
2019-02-14T22:25:33.592Z,8.53
2019-02-14T22:28:02.268Z,10.17
2019-02-14T22:30:30.875Z,8.83
2019-02-14T22:32:59.537Z,10.87
2019-02-14T22:35:28.136Z,8.57
2019-02-14T22:37:56.700Z,10.20
2019-02-14T22:40:25.226Z,6.63
2019-02-14T22:42:53.776Z,8.90
2019-02-14T22:45:22.428Z,7.87
2019-02-14T22:47:51.117Z,11.47
2019-02-14T22:50:19.734Z,12.30
2019-02-14T22:52:48.319Z,9.43
2019-02-14T22:55:16.865Z,10.97
2019-02-14T22:57:45.533Z,8.83
2019-02-14T23:00:17.137Z,10.80
2019-02-14T23:02:45.633Z,9.93
2019-02-14T23:05:14.173Z,10.87
2019-02-14T23:07:42.720Z,11.73
2019-02-14T23:10:11.469Z,13.67
2019-02-14T23:12:40.021Z,19.03
2019-02-14T23:15:08.728Z,12.10
2019-02-14T23:17:38.916Z,15.77
2019-02-14T23:20:07.909Z,7.90
2019-02-14T23:22:36.567Z,8.70
2019-02-14T23:25:06.071Z,12.37
2019-02-14T23:27:34.687Z,12.70
2019-02-14T23:30:03.387Z,9.40
2019-02-14T23:32:31.938Z,11.30
2019-02-14T23:35:00.585Z,10.23
2019-02-14T23:37:29.278Z,9.83
2019-02-14T23:39:57.857Z,11.80
2019-02-14T23:42:26.487Z,12.17
2019-02-14T23:44:55.098Z,10.60
2019-02-14T23:47:23.779Z,7.83
2019-02-14T23:49:52.266Z,9.77
2019-02-14T23:52:21.190Z,9.73
2019-02-14T23:54:49.752Z,7.30
2019-02-14T23:57:18.366Z,10.20
2019-02-14T23:59:46.994Z,10.63
